Time;durP1;ratioP1;P1;durP2;ratioP2;P2;SDS_P1;SDS_P2;PMS_P1;PMS_P2;Temp;Humidity;BMP_temperature;BMP_pressure;BME280_temperature;BME280_humidity;BME280_pressure;Samples;Min_cycle;Max_cycle;Signal;HPM_P1;HPM_P2
2021/05/17 00:02:23;;;;;;;6.28;0.50;;;15.20;99.90;;;14.63;93.33;99358.47;4988715;28;20066;-59
2021/05/17 00:04:50;;;;;;;9.55;0.43;;;15.20;99.90;;;14.64;93.41;99354.84;4989599;28;20117;-56
2021/05/17 00:07:16;;;;;;;3.88;0.60;;;15.20;99.90;;;14.65;93.50;99353.84;4989401;28;20073;-64
2021/05/17 00:09:45;;;;;;;7.85;0.85;;;15.20;99.90;;;14.63;93.48;99354.03;4988796;28;20034;-64
2021/05/17 00:12:13;;;;;;;4.35;0.70;;;15.20;99.90;;;14.64;93.31;99350.41;4989535;28;20037;-60
2021/05/17 00:14:40;;;;;;;6.30;0.68;;;15.20;99.90;;;14.65;93.41;99343.38;4988935;28;20041;-59
2021/05/17 00:17:07;;;;;;;5.93;0.50;;;15.20;99.90;;;14.63;93.43;99343.56;4988758;28;20065;-65
2021/05/17 00:19:33;;;;;;;5.68;0.55;;;15.20;99.90;;;14.63;93.54;99346.19;4989416;28;20494;-69
2021/05/17 00:22:00;;;;;;;6.38;0.38;;;15.20;99.90;;;14.67;93.17;99344.75;4989308;28;20034;-61
2021/05/17 00:24:26;;;;;;;4.00;0.60;;;15.20;99.90;;;14.68;93.17;99340.31;4988830;28;20451;-63
2021/05/17 00:26:53;;;;;;;6.53;0.65;;;15.20;99.90;;;14.68;93.02;99332.44;4989301;28;20096;-66
2021/05/17 00:29:19;;;;;;;2.83;0.45;;;15.20;99.90;;;14.65;93.09;99338.91;4988975;28;20034;-65
2021/05/17 00:31:45;;;;;;;8.55;0.60;;;15.20;99.90;;;14.67;93.01;99334.25;4988712;28;20044;-59
2021/05/17 00:34:12;;;;;;;5.57;0.95;;;15.20;99.90;;;14.68;92.89;99328.00;4989236;28;20046;-65
2021/05/17 00:36:39;;;;;;;4.22;0.43;;;15.20;99.90;;;14.71;92.54;99319.75;4988418;28;20061;-66
2021/05/17 00:39:09;;;;;;;5.53;0.35;;;15.20;99.90;;;14.73;92.62;99316.94;4988994;28;20026;-67
2021/05/17 00:41:37;;;;;;;2.85;0.40;;;15.30;99.90;;;14.70;92.53;99314.72;4988693;28;20030;-65
2021/05/17 00:44:03;;;;;;;5.72;0.65;;;15.20;99.90;;;14.66;92.72;99306.44;4963891;28;20109;-62
2021/05/17 00:46:31;;;;;;;6.45;0.38;;;15.20;99.90;;;14.65;92.85;99304.81;4988581;28;20531;-62
2021/05/17 00:48:58;;;;;;;2.97;0.40;;;15.20;99.90;;;14.61;93.09;99303.63;4988175;28;20030;-66
2021/05/17 00:51:24;;;;;;;6.18;0.47;;;15.20;99.90;;;14.60;92.88;99294.97;4988586;28;20554;-56
2021/05/17 00:53:50;;;;;;;2.50;0.45;;;15.10;99.90;;;14.60;92.98;99287.09;4988384;28;20120;-64
2021/05/17 00:56:17;;;;;;;2.53;0.50;;;15.20;99.90;;;14.59;93.05;99285.47;4988769;28;20566;-64
2021/05/17 00:58:43;;;;;;;2.88;0.43;;;15.10;99.90;;;14.62;92.81;99281.66;4987831;28;20443;-59
2021/05/17 01:01:09;;;;;;;5.97;0.52;;;15.20;99.90;;;14.63;92.54;99285.88;4981054;28;20042;-61
2021/05/17 01:03:36;;;;;;;3.38;0.60;;;15.20;99.90;;;14.60;92.50;99281.84;4988000;28;20048;-63
2021/05/17 01:06:04;;;;;;;4.70;0.50;;;15.20;99.90;;;14.63;92.67;99285.09;4955361;28;20118;-62
2021/05/17 01:09:01;;;;;;;2.72;0.40;;;15.20;99.90;;;14.58;93.24;99288.28;4988231;28;20109;-64
2021/05/17 01:11:29;;;;;;;6.88;0.45;;;15.10;99.90;;;14.56;93.01;99279.81;4967569;28;20053;-67
2021/05/17 01:14:00;;;;;;;3.13;0.70;;;15.10;99.90;;;14.59;93.05;99285.47;4968186;28;20498;-62
2021/05/17 01:16:27;;;;;;;5.78;0.40;;;15.10;99.90;;;14.62;92.53;99294.75;4988173;28;20026;-61
2021/05/17 01:18:53;;;;;;;4.55;0.60;;;15.10;99.90;;;14.60;92.78;99281.03;4987072;28;20034;-64
2021/05/17 01:21:22;;;;;;;10.68;0.55;;;15.10;99.90;;;14.58;92.51;99267.31;4987988;28;20505;-68
2021/05/17 01:23:57;;;;;;;4.20;0.85;;;15.10;99.90;;;14.56;92.36;99261.47;4988291;28;20034;-62
2021/05/17 01:26:29;;;;;;;3.10;0.40;;;15.10;99.90;;;14.57;92.47;99257.84;4980915;28;20481;-65
2021/05/17 01:29:13;;;;;;;2.75;0.52;;;15.10;99.90;;;14.57;91.98;99255.22;4987567;28;20578;-60
2021/05/17 01:31:40;;;;;;;7.95;0.55;;;15.10;99.90;;;14.52;92.12;99258.44;4982648;28;20101;-60
2021/05/17 01:34:08;;;;;;;2.53;0.47;;;15.10;99.90;;;14.47;92.61;99253.00;4987183;28;20204;-66
2021/05/17 01:36:37;;;;;;;4.07;0.63;;;15.00;99.90;;;14.42;93.08;99262.44;4987701;28;20035;-64
2021/05/17 01:39:03;;;;;;;4.82;0.60;;;15.00;99.90;;;14.36;93.50;99295.47;4987425;28;20474;-64
2021/05/17 01:41:29;;;;;;;7.72;0.85;;;15.00;99.90;;;14.32;93.99;99290.81;4987681;28;20045;-64
2021/05/17 01:43:58;;;;;;;10.20;0.82;;;14.90;99.90;;;14.24;94.42;99260.34;4987714;28;20034;-66
2021/05/17 01:46:31;;;;;;;5.63;0.70;;;14.90;99.90;;;14.26;94.70;99280.09;4987319;28;20038;-62
2021/05/17 01:48:58;;;;;;;3.78;0.50;;;14.80;99.90;;;14.32;94.28;99277.69;4962423;28;20057;-61
2021/05/17 01:51:26;;;;;;;5.55;0.70;;;14.90;99.90;;;14.31;94.12;99270.84;4970030;28;20580;-65
2021/05/17 01:53:53;;;;;;;3.70;0.47;;;14.90;99.90;;;14.34;94.03;99259.97;4987672;28;20043;-64
2021/05/17 01:56:20;;;;;;;3.17;0.45;;;14.90;99.90;;;14.35;94.09;99262.41;4987474;28;20398;-62
2021/05/17 01:58:46;;;;;;;7.65;0.50;;;14.90;99.90;;;14.38;94.21;99263.81;4987882;28;20061;-64
2021/05/17 02:01:16;;;;;;;4.10;0.45;;;14.90;99.90;;;14.41;94.38;99260.81;4986996;28;20397;-58
2021/05/17 02:03:45;;;;;;;9.23;0.43;;;14.90;99.90;;;14.45;94.30;99269.91;4987234;28;20054;-60
2021/05/17 02:06:15;;;;;;;4.65;0.60;;;15.00;99.90;;;14.46;94.51;99268.91;4987296;28;20406;-62
2021/05/17 02:08:45;;;;;;;5.45;0.40;;;15.00;99.90;;;14.44;94.77;99271.72;4987530;28;20050;-64
2021/05/17 02:11:14;;;;;;;7.80;0.85;;;15.00;99.90;;;14.46;94.52;99274.16;4986908;28;20153;-55
2021/05/17 02:13:42;;;;;;;7.38;0.55;;;15.00;99.90;;;14.46;95.12;99261.03;4986759;28;20532;-62
2021/05/17 02:16:12;;;;;;;5.45;0.43;;;15.00;99.90;;;14.46;95.07;99256.63;4987095;28;20027;-61
2021/05/17 02:18:43;;;;;;;4.60;0.50;;;15.00;99.90;;;14.48;94.98;99272.94;4980321;28;20512;-60
2021/05/17 02:21:11;;;;;;;10.85;0.80;;;15.00;99.90;;;14.47;95.19;99271.34;4986684;28;20636;-69
2021/05/17 02:23:38;;;;;;;5.60;0.47;;;15.00;99.90;;;14.50;95.03;99265.69;4980019;28;20038;-60
2021/05/17 02:26:04;;;;;;;5.55;0.45;;;15.00;99.90;;;14.48;94.78;99267.72;4987228;28;20061;-61
2021/05/17 02:28:30;;;;;;;3.58;0.45;;;15.00;99.90;;;14.46;95.17;99280.19;4986891;28;20117;-55
2021/05/17 02:30:57;;;;;;;1.75;0.30;;;15.00;99.90;;;14.49;95.08;99273.75;4986907;28;20046;-56
2021/05/17 02:33:23;;;;;;;5.30;0.40;;;15.00;99.90;;;14.47;94.64;99260.03;4987242;28;20038;-65
2021/05/17 02:35:49;;;;;;;2.50;0.30;;;15.00;99.90;;;14.45;94.70;99262.06;4987507;28;20468;-62
2021/05/17 02:38:16;;;;;;;5.18;0.35;;;15.00;99.90;;;14.40;95.14;99264.44;4986722;28;20105;-59
2021/05/17 02:43:22;;;;;;;2.53;0.28;;;15.00;99.90;;;14.41;95.42;99266.88;4963170;23;20066;-63
2021/05/17 02:45:49;;;;;;;3.47;0.28;;;15.00;99.90;;;14.37;95.33;99273.50;4987820;28;20046;-55
2021/05/17 02:48:16;;;;;;;7.25;0.68;;;15.00;99.90;;;14.41;95.41;99273.91;4987308;28;20485;-62
2021/05/17 02:50:46;;;;;;;5.65;0.30;;;15.10;99.90;;;14.35;95.55;99272.88;4979726;28;20108;-56
2021/05/17 02:53:37;;;;;;;6.18;0.30;;;14.90;99.90;;;14.37;95.85;99296.25;4987185;28;20058;-63
2021/05/17 02:56:17;;;;;;;7.95;0.40;;;14.90;99.90;;;14.34;95.74;99286.19;4982024;28;20075;-61
2021/05/17 02:58:45;;;;;;;5.35;0.40;;;14.90;99.90;;;14.34;95.82;99270.44;4979003;28;20037;-58
2021/05/17 03:01:41;;;;;;;7.50;0.50;;;14.90;99.90;;;14.35;95.76;99248.50;4987070;28;20034;-63
2021/05/17 03:04:15;;;;;;;4.72;0.30;;;14.90;99.90;;;14.29;95.59;99243.03;4981128;28;20096;-57
2021/05/17 03:06:54;;;;;;;2.25;0.43;;;14.90;99.90;;;14.32;95.71;99251.50;4986738;28;20397;-67
2021/05/17 03:09:21;;;;;;;7.45;0.60;;;14.90;99.90;;;14.32;95.15;99254.94;4958218;28;20043;-63
2021/05/17 03:11:51;;;;;;;4.35;0.40;;;14.90;99.90;;;14.32;95.26;99268.03;4987469;28;20042;-65
2021/05/17 03:14:19;;;;;;;6.95;0.30;;;14.90;99.90;;;14.31;95.46;99265.59;4969615;28;20034;-56
2021/05/17 03:16:48;;;;;;;4.32;0.20;;;14.80;99.90;;;14.29;95.21;99274.47;4986191;28;20038;-56
2021/05/17 03:19:15;;;;;;;7.00;0.70;;;14.90;99.90;;;14.29;95.07;99279.72;4986921;28;20172;-62
2021/05/17 03:21:43;;;;;;;2.28;0.28;;;14.80;99.90;;;14.29;95.20;99274.47;4967640;28;20034;-59
2021/05/17 03:24:11;;;;;;;1.20;0.20;;;14.90;99.90;;;14.26;95.20;99261.75;4968545;28;20046;-53
2021/05/17 03:26:38;;;;;;;1.25;0.15;;;14.90;99.90;;;14.24;94.99;99266.38;4962787;28;20066;-59
2021/05/17 03:29:04;;;;;;;3.42;0.20;;;14.80;99.90;;;14.23;94.74;99270.00;4990595;28;20030;-64
2021/05/17 03:31:31;;;;;;;1.17;0.15;;;14.80;99.90;;;14.21;94.75;99256.31;4989947;28;20125;-64
2021/05/17 03:33:58;;;;;;;2.65;0.30;;;14.70;99.90;;;14.18;94.66;99245.41;4990196;28;20402;-64
2021/05/17 03:36:24;;;;;;;4.18;0.22;;;14.70;99.90;;;14.11;94.94;99236.75;4989718;28;20037;-62
2021/05/17 03:38:50;;;;;;;3.58;0.20;;;14.70;99.90;;;14.05;95.38;99246.19;4989747;28;20038;-67
2021/05/17 03:41:16;;;;;;;0.73;0.20;;;14.60;99.90;;;14.05;95.21;99250.63;4990283;28;20420;-63
2021/05/17 03:43:42;;;;;;;0.65;0.10;;;14.60;99.90;;;14.04;95.29;99247.19;4989238;28;20501;-60
2021/05/17 03:46:08;;;;;;;1.08;0.20;;;14.60;99.90;;;14.01;95.46;99255.44;4989843;28;20121;-66
2021/05/17 03:48:40;;;;;;;1.33;0.20;;;14.60;99.90;;;14.00;95.46;99248.59;4989393;28;20057;-62
2021/05/17 03:51:13;;;;;;;0.82;0.20;;;14.60;99.90;;;13.99;95.77;99248.78;4982905;28;20141;-65
2021/05/17 03:53:40;;;;;;;0.73;0.15;;;14.50;99.90;;;13.99;95.78;99246.97;4989808;28;20045;-65
2021/05/17 03:56:06;;;;;;;1.63;0.25;;;14.50;99.90;;;13.96;96.07;99242.13;4989726;28;20042;-64
2021/05/17 03:58:32;;;;;;;5.88;0.50;;;14.50;99.90;;;13.95;95.84;99240.50;4989700;28;20081;-62
2021/05/17 04:01:00;;;;;;;3.75;0.40;;;14.50;99.90;;;13.91;95.80;99244.53;4989163;28;20129;-62
2021/05/17 04:03:26;;;;;;;1.67;0.20;;;14.50;99.90;;;13.90;95.76;99242.91;4989122;28;20065;-66
2021/05/17 04:06:06;;;;;;;1.73;0.20;;;14.40;99.90;;;13.88;95.68;99244.91;4989294;28;20062;-65
2021/05/17 04:13:53;;;;;;;4.28;0.30;;;14.40;99.90;;;13.82;95.42;99253.53;4988983;28;20069;-69
2021/05/17 04:16:19;;;;;;;1.92;0.25;;;14.40;99.90;;;13.80;95.68;99250.31;4989271;28;20038;-64
2021/05/17 04:18:46;;;;;;;1.63;0.20;;;14.30;99.90;;;13.76;95.57;99249.09;4988642;28;20050;-60
2021/05/17 04:21:13;;;;;;;2.13;0.20;;;14.30;99.90;;;13.76;95.50;99251.69;4989172;28;20040;-55
2021/05/17 04:23:39;;;;;;;3.75;0.20;;;14.30;99.90;;;13.76;95.52;99254.31;4989220;28;20062;-60
2021/05/17 04:26:05;;;;;;;1.73;0.52;;;14.30;99.90;;;13.74;95.47;99245.84;4988566;28;20033;-61
2021/05/17 04:28:33;;;;;;;4.22;0.20;;;14.30;99.90;;;13.72;95.34;99260.94;4988936;28;20117;-57
2021/05/17 04:31:00;;;;;;;0.90;0.20;;;14.30;99.90;;;13.72;94.94;99263.56;4988434;28;20034;-63
2021/05/17 04:33:26;;;;;;;3.13;0.40;;;14.20;99.90;;;13.73;95.03;99294.78;4988950;28;20042;-61
2021/05/17 04:35:52;;;;;;;1.17;0.20;;;14.30;99.90;;;13.74;94.97;99292.97;4987848;28;20129;-68
2021/05/17 04:38:18;;;;;;;2.72;0.20;;;14.30;99.90;;;13.73;95.15;99301.81;4988933;28;20109;-60
2021/05/17 04:40:46;;;;;;;2.88;0.30;;;14.20;99.90;;;13.64;95.33;99298.56;4988734;28;20081;-62
2021/05/17 04:43:12;;;;;;;1.95;0.20;;;14.20;99.90;;;13.59;95.24;99325.31;4988193;28;20065;-63
2021/05/17 04:45:38;;;;;;;3.85;0.20;;;14.10;99.90;;;13.55;95.29;99326.69;4988334;28;20504;-59
2021/05/17 04:48:05;;;;;;;1.73;0.13;;;14.10;99.90;;;13.49;95.70;99340.53;4988153;28;20057;-57
2021/05/17 04:50:31;;;;;;;2.45;0.20;;;14.10;99.90;;;13.52;94.07;99318.41;4988595;28;20388;-58
2021/05/17 04:52:56;;;;;;;0.00;0.00;;;14.10;99.90;;;13.20;90.08;99346.78;4987944;28;20038;-60
2021/05/17 04:55:22;;;;;;;0.10;0.00;;;13.90;99.90;;;12.56;90.23;99335.44;4988488;28;20041;-52
2021/05/17 04:57:48;;;;;;;0.65;0.00;;;13.40;99.90;;;12.05;89.99;99330.22;4988275;28;20038;-61
2021/05/17 05:00:15;;;;;;;0.50;0.00;;;12.90;99.90;;;11.83;89.73;99378.09;4987926;28;20033;-53
2021/05/17 05:02:41;;;;;;;0.43;0.00;;;12.50;99.90;;;11.50;89.21;99399.25;4988404;28;20043;-57
2021/05/17 05:05:09;;;;;;;0.00;0.00;;;12.20;99.90;;;11.29;88.82;99367.84;4987313;28;20509;-54
2021/05/17 05:07:35;;;;;;;0.00;0.00;;;12.00;99.90;;;11.08;90.30;99354.63;4988386;28;20034;-54
2021/05/17 05:10:01;;;;;;;0.00;0.00;;;11.70;99.90;;;10.99;88.67;99348.66;4987602;28;20524;-58
2021/05/17 05:12:27;;;;;;;0.35;0.00;;;11.50;99.90;;;10.78;90.97;99349.31;4988138;28;20102;-59
2021/05/17 05:14:52;;;;;;;0.00;0.00;;;11.30;99.90;;;10.76;90.11;99329.63;4988355;28;20088;-57
2021/05/17 05:17:18;;;;;;;1.38;0.00;;;11.20;99.90;;;10.80;88.46;99313.47;4987850;28;20030;-54
2021/05/17 05:19:44;;;;;;;0.10;0.00;;;11.20;99.90;;;10.73;89.34;99301.31;4988271;28;20522;-58
2021/05/17 05:22:10;;;;;;;0.32;0.00;;;11.10;99.90;;;10.72;88.86;99310.09;4987913;28;20145;-55
2021/05/17 05:24:36;;;;;;;0.00;0.00;;;11.10;99.90;;;10.51;90.58;99311.53;4988478;28;20074;-56
2021/05/17 05:29:55;;;;;;;0.88;0.00;;;11.00;99.90;;;10.53;89.88;99332.19;4988086;28;20050;-57
2021/05/17 05:32:26;;;;;;;2.55;0.00;;;10.90;99.90;;;10.30;90.68;99335.59;4987671;28;20046;-53
2021/05/17 05:34:52;;;;;;;0.40;0.00;;;10.80;99.90;;;10.04;91.55;99295.16;4987860;28;20041;-55
2021/05/17 05:37:18;;;;;;;0.10;0.00;;;10.60;99.90;;;9.95;92.00;99323.78;4987396;28;20478;-57
2021/05/17 05:39:44;;;;;;;2.55;0.00;;;10.50;99.90;;;9.93;92.39;99324.94;4988003;28;20026;-52
2021/05/17 05:42:11;;;;;;;0.28;0.00;;;10.40;99.90;;;10.20;89.13;99336.75;4987025;28;20209;-54
2021/05/17 05:44:48;;;;;;;0.00;0.00;;;10.50;99.90;;;10.04;91.20;99321.97;4988046;28;20042;-57
2021/05/17 05:47:17;;;;;;;0.00;0.00;;;10.50;99.90;;;10.23;89.25;99334.63;4970767;28;20501;-54
2021/05/17 05:49:48;;;;;;;1.75;0.00;;;10.50;99.90;;;10.17;90.15;99342.28;4987302;28;20038;-57
2021/05/17 05:52:16;;;;;;;0.22;0.00;;;10.50;99.90;;;10.28;90.40;99347.16;4987690;28;20038;-59
2021/05/17 05:54:44;;;;;;;0.00;0.00;;;10.70;99.90;;;10.50;86.93;99335.94;4987475;28;20046;-51
2021/05/17 05:57:10;;;;;;;0.10;0.00;;;10.70;99.90;;;10.53;88.01;99376.47;4987471;28;20026;-60
2021/05/17 05:59:37;;;;;;;0.30;0.00;;;10.90;99.90;;;10.50;87.70;99372.41;4980222;28;20573;-57
2021/05/17 06:02:04;;;;;;;2.22;0.00;;;10.80;99.90;;;10.33;89.20;99414.31;4987624;28;20037;-59
2021/05/17 06:04:29;;;;;;;0.00;0.00;;;10.80;99.90;;;10.49;87.39;99445.50;4987129;28;20489;-58
2021/05/17 06:06:55;;;;;;;0.00;0.00;;;10.90;99.90;;;10.37;89.00;99416.44;4987609;28;20042;-60
2021/05/17 06:09:21;;;;;;;0.10;0.00;;;10.80;99.90;;;10.29;89.61;99422.47;4986781;28;20040;-57
2021/05/17 06:11:48;;;;;;;0.00;0.00;;;10.70;99.90;;;10.46;88.19;99398.94;4987242;28;20037;-57
2021/05/17 06:14:14;;;;;;;0.10;0.00;;;10.70;99.90;;;10.43;88.56;99401.91;4987114;28;20125;-61
2021/05/17 06:16:40;;;;;;;0.00;0.00;;;10.70;99.90;;;10.33;90.39;99398.72;4979689;28;20068;-58
2021/05/17 06:19:07;;;;;;;0.10;0.00;;;10.70;99.90;;;10.24;91.45;99364.06;4982328;28;20667;-63
2021/05/17 06:21:33;;;;;;;5.05;0.10;;;10.60;99.90;;;10.25;92.74;99371.72;4987000;28;20046;-56
2021/05/17 06:24:00;;;;;;;0.00;0.00;;;10.70;99.90;;;10.31;92.67;99359.81;4986432;28;20490;-60
2021/05/17 06:26:28;;;;;;;1.15;0.00;;;10.70;99.90;;;10.47;90.66;99371.94;4979012;28;20039;-59
2021/05/17 06:28:55;;;;;;;0.00;0.00;;;10.80;99.90;;;10.41;91.80;99370.00;4987299;28;20041;-55
2021/05/17 06:31:22;;;;;;;1.10;0.00;;;10.70;99.90;;;10.52;88.58;99414.72;4980420;28;20054;-56
2021/05/17 06:33:50;;;;;;;1.45;0.00;;;10.80;99.90;;;10.44;90.24;99413.94;4983443;28;20096;-63
2021/05/17 06:36:16;;;;;;;0.00;0.00;;;10.80;99.90;;;10.43;89.80;99451.38;4986040;28;20034;-54
2021/05/17 06:38:44;;;;;;;0.00;0.00;;;10.80;99.90;;;10.48;90.01;99462.09;4986917;28;20144;-59
2021/05/17 06:41:11;;;;;;;0.03;0.00;;;10.80;99.90;;;10.56;88.52;99481.13;4987142;23;20206;-62
2021/05/17 06:43:38;;;;;;;0.08;0.00;;;10.80;99.90;;;10.70;87.20;99468.38;4985725;28;20142;-56
2021/05/17 06:46:08;;;;;;;3.47;0.00;;;10.90;99.90;;;10.76;87.62;99489.34;4986529;28;20042;-55
2021/05/17 06:48:42;;;;;;;0.17;0.00;;;11.00;99.90;;;10.71;88.73;99494.25;4986432;28;20033;-50
2021/05/17 06:51:15;;;;;;;0.05;0.00;;;11.00;99.90;;;10.73;89.59;99481.06;4987647;28;20034;-51
2021/05/17 06:53:43;;;;;;;1.27;0.00;;;11.00;99.90;;;10.76;90.47;99458.09;4961831;28;20039;-57
2021/05/17 06:56:39;;;;;;;0.00;0.00;;;11.10;99.90;;;10.80;90.43;99463.78;4987086;28;20034;-57
2021/05/17 06:59:00;;;;;;;0.35;0.00;;;11.10;99.90;;;10.81;91.03;99442.75;4984815;28;20042;-53
2021/05/17 07:01:28;;;;;;;0.35;0.05;;;11.10;99.90;;;10.87;91.46;99436.84;4991322;28;20256;-54
2021/05/17 07:03:58;;;;;;;0.10;0.00;;;11.20;99.90;;;10.96;90.08;99433.22;4991563;28;20038;-56
2021/05/17 07:06:29;;;;;;;0.10;0.00;;;11.30;99.90;;;11.01;90.53;99424.88;4991654;28;20042;-55
2021/05/17 07:14:17;;;;;;;0.00;0.00;;;11.60;99.90;;;11.21;88.88;99440.91;4991139;28;20042;-57
2021/05/17 07:16:43;;;;;;;0.10;0.00;;;11.60;99.90;;;11.20;89.58;99460.13;4991015;28;20038;-51
2021/05/17 07:19:09;;;;;;;0.80;0.00;;;11.60;99.90;;;11.14;90.11;99473.84;4991025;28;20085;-56
2021/05/17 07:24:23;;;;;;;2.05;0.00;;;11.50;99.90;;;10.95;92.14;99504.56;4991144;28;20045;-52
2021/05/17 07:26:51;;;;;;;1.45;0.00;;;11.50;99.90;;;10.91;92.61;99513.69;4990744;28;20046;-51
2021/05/17 07:29:19;;;;;;;0.03;0.00;;;11.40;99.90;;;10.98;93.43;99527.69;4990636;28;20026;-56
2021/05/17 07:31:46;;;;;;;0.30;0.00;;;11.40;99.90;;;10.97;93.56;99527.84;4990101;28;20073;-55
2021/05/17 07:34:12;;;;;;;0.00;0.00;;;11.50;99.90;;;11.12;91.00;99538.38;4989856;28;20552;-51
2021/05/17 07:36:39;;;;;;;0.30;0.00;;;11.50;99.90;;;11.16;88.97;99524.84;4991002;28;20039;-54
2021/05/17 07:39:06;;;;;;;1.45;0.00;;;11.50;99.90;;;11.49;82.71;99541.09;4990441;28;20085;-50
2021/05/17 07:41:32;;;;;;;0.28;0.00;;;11.70;99.90;;;11.46;84.93;99543.22;4990443;28;20049;-50
2021/05/17 07:43:58;;;;;;;0.43;0.00;;;11.80;99.90;;;11.14;88.03;99545.06;4990072;28;20077;-51
2021/05/17 07:46:24;;;;;;;0.10;0.00;;;11.70;99.90;;;11.03;88.57;99547.22;4982867;28;20074;-48
2021/05/17 07:49:08;;;;;;;0.10;0.00;;;11.50;99.90;;;11.04;90.16;99567.09;4990683;28;20061;-52
2021/05/17 07:51:37;;;;;;;0.00;0.00;;;11.60;99.90;;;11.40;80.53;99563.00;4990394;28;20042;-52
2021/05/17 07:54:04;;;;;;;0.00;0.00;;;11.70;99.90;;;11.21;83.29;99569.47;4990458;28;20773;-55
2021/05/17 07:56:31;;;;;;;0.98;0.00;;;11.80;99.90;;;11.16;81.90;99573.56;4990134;28;20038;-54
2021/05/17 07:58:57;;;;;;;0.00;0.00;;;11.80;99.90;;;10.95;82.57;99593.19;4990172;28;20041;-52
2021/05/17 08:01:23;;;;;;;0.00;0.00;;;11.60;99.90;;;10.89;83.67;99603.44;4989697;28;20359;-50
2021/05/17 08:03:50;;;;;;;0.00;0.00;;;11.50;99.90;;;10.74;86.30;99605.94;4989382;28;20049;-54
2021/05/17 08:06:17;;;;;;;0.00;0.00;;;11.40;99.90;;;10.76;85.85;99619.63;4989581;28;20521;-53
2021/05/17 08:08:44;;;;;;;0.00;0.00;;;11.30;99.90;;;10.77;85.83;99626.47;4989242;28;20142;-58
2021/05/17 08:11:10;;;;;;;0.00;0.00;;;11.30;99.90;;;10.70;86.27;99622.91;4988406;28;20049;-53
2021/05/17 08:13:38;;;;;;;0.10;0.00;;;11.30;99.90;;;10.71;86.62;99632.34;4989179;28;20084;-53
2021/05/17 08:16:06;;;;;;;0.20;0.00;;;11.30;99.90;;;10.72;87.75;99638.38;4989461;28;20568;-54
2021/05/17 08:18:34;;;;;;;1.95;0.00;;;11.30;99.90;;;10.81;85.94;99651.22;4989038;28;20186;-53
2021/05/17 08:21:00;;;;;;;0.00;0.00;;;11.40;99.90;;;10.89;82.40;99640.75;4987992;28;20038;-54
2021/05/17 08:23:26;;;;;;;0.05;0.00;;;11.40;99.90;;;10.92;85.92;99647.41;4989729;28;20121;-54
2021/05/17 08:25:52;;;;;;;0.43;0.03;;;11.40;99.90;;;10.92;86.62;99660.44;4969986;28;20462;-50
2021/05/17 08:28:18;;;;;;;0.30;0.00;;;11.40;99.90;;;10.98;86.27;99659.78;4989308;28;20030;-54
2021/05/17 08:30:46;;;;;;;0.00;0.00;;;11.50;99.90;;;11.05;85.84;99650.34;4988764;28;20068;-54
2021/05/17 08:33:14;;;;;;;1.20;0.00;;;11.50;99.90;;;11.03;85.53;99656.69;4981659;28;20034;-55
2021/05/17 08:35:41;;;;;;;2.20;0.00;;;11.60;99.90;;;11.04;86.69;99653.09;4968272;28;20211;-55
2021/05/17 08:38:08;;;;;;;0.65;0.00;;;11.60;99.90;;;11.06;86.31;99661.56;4987939;28;20433;-53
2021/05/17 08:40:42;;;;;;;0.20;0.00;;;11.60;99.90;;;11.06;86.54;99653.75;4988486;28;20538;-56
2021/05/17 08:43:09;;;;;;;0.65;0.00;;;11.60;99.90;;;11.06;85.92;99656.34;4988118;28;20046;-49
2021/05/17 08:45:35;;;;;;;0.15;0.00;;;11.60;99.90;;;11.03;85.20;99641.88;4988750;28;20038;-51
2021/05/17 08:48:02;;;;;;;0.22;0.00;;;11.50;99.90;;;11.00;85.82;99633.56;4988013;28;20353;-55
2021/05/17 08:50:29;;;;;;;0.00;0.00;;;11.40;99.90;;;11.07;84.89;99637.13;4988603;28;20086;-57
2021/05/17 08:52:55;;;;;;;3.10;0.00;;;11.50;99.90;;;11.20;85.74;99630.41;4989058;28;20042;-54
2021/05/17 08:55:21;;;;;;;0.10;0.00;;;11.60;99.90;;;11.40;85.51;99624.78;4987635;28;20382;-52
2021/05/17 08:57:49;;;;;;;0.00;0.00;;;11.70;99.90;;;11.51;84.27;99614.78;4988606;28;20200;-49
2021/05/17 09:00:21;;;;;;;0.15;0.00;;;11.90;99.90;;;11.78;83.63;99610.09;4987798;28;20042;-49
2021/05/17 09:02:48;;;;;;;0.60;0.00;;;12.10;99.90;;;12.23;82.29;99596.22;4970829;28;20090;-48
2021/05/17 09:05:25;;;;;;;0.68;0.08;;;12.40;99.90;;;12.76;79.38;99574.28;4988078;28;20089;-54
2021/05/17 09:07:54;;;;;;;0.00;0.00;;;12.80;99.90;;;13.27;78.00;99572.56;4988189;28;20386;-51
2021/05/17 09:10:38;;;;;;;0.00;0.00;;;13.40;99.90;;;14.00;74.15;99565.47;4987978;28;20034;-54
2021/05/17 09:13:09;;;;;;;0.15;0.00;;;14.00;99.90;;;15.09;70.16;99563.19;4982199;28;20053;-53
2021/05/17 09:15:42;;;;;;;0.00;0.00;;;15.00;99.90;;;15.34;70.02;99561.66;4988510;28;20168;-54
2021/05/17 09:18:19;;;;;;;0.00;0.00;;;15.50;99.90;;;15.00;69.62;99575.66;4980255;28;20450;-60
2021/05/17 09:20:48;;;;;;;0.00;0.00;;;15.50;99.90;;;15.39;73.58;99569.75;4987496;28;20045;-50
2021/05/17 09:23:21;;;;;;;0.50;0.00;;;15.80;99.90;;;15.20;66.16;99558.16;4987967;28;20034;-56
2021/05/17 09:26:02;;;;;;;0.65;0.00;;;16.00;99.90;;;15.02;68.27;99551.84;4987347;28;20133;-61
2021/05/17 09:28:44;;;;;;;0.32;0.00;;;15.70;99.90;;;15.13;67.98;99559.94;4985507;28;20046;-61
2021/05/17 09:31:25;;;;;;;0.00;0.00;;;15.70;99.90;;;15.78;65.67;99557.75;4986212;28;20055;-57
2021/05/17 09:34:00;;;;;;;0.10;0.00;;;15.90;99.90;;;16.28;64.68;99558.97;4987871;28;20073;-63
2021/05/17 09:36:39;;;;;;;0.17;0.00;;;16.50;99.90;;;17.57;62.24;99562.41;4987574;28;20436;-62
2021/05/17 09:39:17;;;;;;;0.20;0.00;;;17.40;99.90;;;18.73;61.00;99563.78;4987105;28;20038;-60
2021/05/17 09:41:54;;;;;;;0.10;0.00;;;18.60;99.90;;;18.59;63.74;99563.06;4987047;28;20096;-64
2021/05/17 09:44:24;;;;;;;0.98;0.00;;;18.90;99.90;;;18.77;64.82;99572.84;4987627;28;20125;-57
2021/05/17 09:47:17;;;;;;;1.85;0.00;;;19.30;99.90;;;18.58;60.07;99569.34;4987137;28;20034;-61
2021/05/17 09:49:52;;;;;;;0.10;0.00;;;19.40;99.90;;;18.30;63.90;99563.75;4983578;28;20407;-60
2021/05/17 09:52:22;;;;;;;0.10;0.00;;;19.00;99.40;;;18.93;61.78;99568.81;4986440;28;20173;-61
2021/05/17 09:54:51;;;;;;;0.88;0.00;;;19.40;99.00;;;18.98;63.03;99553.94;4987078;28;20615;-55
2021/05/17 09:57:26;;;;;;;0.10;0.00;;;19.50;99.70;;;19.57;60.74;99556.88;4987642;28;20050;-62
2021/05/17 09:59:55;;;;;;;1.00;0.00;;;20.10;99.60;;;19.52;61.67;99552.25;4985664;28;20034;-59
2021/05/17 10:02:44;;;;;;;0.00;0.00;;;20.20;97.60;;;19.68;54.24;99570.13;4983476;28;20034;-61
2021/05/17 10:05:28;;;;;;;0.10;0.00;;;20.30;95.60;;;19.24;52.95;99576.56;4987714;28;20042;-57
2021/05/17 10:08:00;;;;;;;1.88;0.00;;;20.20;88.00;;;19.29;58.50;99584.66;4982301;28;20121;-57
2021/05/17 10:10:28;;;;;;;0.17;0.00;;;20.00;93.20;;;19.77;57.23;99591.75;4987248;28;20501;-56
2021/05/17 10:12:57;;;;;;;0.60;0.00;;;20.40;92.20;;;20.55;55.79;99594.19;4979684;28;20115;-60
2021/05/17 10:15:28;;;;;;;0.00;0.00;;;21.00;91.60;;;20.50;54.60;99602.00;4986101;28;20125;-59
2021/05/17 10:17:54;;;;;;;0.50;0.00;;;21.10;87.40;;;20.87;54.96;99591.97;4983897;28;20423;-66
2021/05/17 10:20:23;;;;;;;0.00;0.00;;;21.40;87.80;;;20.64;53.87;99606.03;4980512;28;20081;-55
2021/05/17 10:22:55;;;;;;;1.20;0.00;;;21.40;82.80;;;19.77;51.95;99610.25;4980605;28;20494;-61
2021/05/17 10:25:27;;;;;;;0.20;0.00;;;20.80;77.70;;;19.13;52.72;99623.00;4983486;28;20039;-57
2021/05/17 10:27:59;;;;;;;0.30;0.00;;;20.20;81.30;;;19.55;55.42;99617.84;4984488;28;20039;-63
2021/05/17 10:30:31;;;;;;;0.10;0.00;;;20.30;83.80;;;20.20;52.88;99628.53;4966885;28;20035;-60
2021/05/17 10:33:00;;;;;;;0.08;0.00;;;20.60;85.50;;;20.99;52.16;99621.88;4983429;28;20129;-58
2021/05/17 10:35:35;;;;;;;0.00;0.00;;;21.30;81.20;;;21.03;54.13;99616.94;4989442;28;20510;-61
2021/05/17 10:38:27;;;;;;;0.20;0.00;;;21.60;85.50;;;20.54;51.56;99626.97;4989661;28;20057;-61
2021/05/17 10:41:42;;;;;;;0.03;0.00;;;21.50;83.40;;;19.86;54.12;99632.66;4989697;28;20628;-66
2021/05/17 10:44:14;;;;;;;0.00;0.00;;;20.90;81.60;;;20.00;55.98;99633.28;4988108;28;20532;-59
2021/05/17 10:47:00;;;;;;;2.63;0.00;;;20.80;86.30;;;19.91;51.25;99635.44;4988647;28;20089;-57
2021/05/17 10:49:37;;;;;;;0.28;0.00;;;20.80;78.10;;;19.72;55.70;99642.63;4979820;28;20138;-63